sensor_id;sensor_type;location;lat;lon;timestamp;P1;durP1;ratioP1;P2;durP2;ratioP2
5393;SDS011;2720;52.396;10.064;2023-02-15T00:01:05;175.93;;;42.40;;
5393;SDS011;2720;52.396;10.064;2023-02-15T00:03:34;169.00;;;42.40;;
5393;SDS011;2720;52.396;10.064;2023-02-15T00:06:02;181.20;;;42.30;;
5393;SDS011;2720;52.396;10.064;2023-02-15T00:08:29;204.43;;;45.17;;
5393;SDS011;2720;52.396;10.064;2023-02-15T00:11:03;200.70;;;45.10;;
5393;SDS011;2720;52.396;10.064;2023-02-15T00:13:31;203.30;;;44.70;;
5393;SDS011;2720;52.396;10.064;2023-02-15T00:16:01;163.70;;;39.23;;
5393;SDS011;2720;52.396;10.064;2023-02-15T00:18:28;145.33;;;38.67;;
5393;SDS011;2720;52.396;10.064;2023-02-15T00:20:57;154.13;;;38.70;;
5393;SDS011;2720;52.396;10.064;2023-02-15T00:23:25;133.83;;;39.93;;
5393;SDS011;2720;52.396;10.064;2023-02-15T00:26:02;180.97;;;38.77;;
5393;SDS011;2720;52.396;10.064;2023-02-15T00:28:30;145.07;;;37.17;;
5393;SDS011;2720;52.396;10.064;2023-02-15T00:31:02;183.07;;;39.77;;
5393;SDS011;2720;52.396;10.064;2023-02-15T00:33:30;179.60;;;40.83;;
5393;SDS011;2720;52.396;10.064;2023-02-15T00:35:58;214.27;;;42.60;;
5393;SDS011;2720;52.396;10.064;2023-02-15T00:38:26;161.70;;;38.27;;
5393;SDS011;2720;52.396;10.064;2023-02-15T00:40:53;184.77;;;42.30;;
5393;SDS011;2720;52.396;10.064;2023-02-15T00:43:21;168.43;;;39.23;;
5393;SDS011;2720;52.396;10.064;2023-02-15T00:45:48;157.53;;;39.57;;
5393;SDS011;2720;52.396;10.064;2023-02-15T00:48:15;178.77;;;40.40;;
5393;SDS011;2720;52.396;10.064;2023-02-15T00:50:44;166.00;;;38.60;;
5393;SDS011;2720;52.396;10.064;2023-02-15T00:53:12;178.57;;;41.43;;
5393;SDS011;2720;52.396;10.064;2023-02-15T00:55:39;164.73;;;38.93;;
5393;SDS011;2720;52.396;10.064;2023-02-15T00:58:06;176.00;;;41.80;;
5393;SDS011;2720;52.396;10.064;2023-02-15T01:00:34;211.53;;;40.00;;
5393;SDS011;2720;52.396;10.064;2023-02-15T01:03:01;169.03;;;40.70;;
5393;SDS011;2720;52.396;10.064;2023-02-15T01:05:29;152.13;;;39.23;;
5393;SDS011;2720;52.396;10.064;2023-02-15T01:07:57;189.37;;;43.20;;
5393;SDS011;2720;52.396;10.064;2023-02-15T01:10:26;152.13;;;38.20;;
5393;SDS011;2720;52.396;10.064;2023-02-15T01:12:54;142.43;;;36.90;;
5393;SDS011;2720;52.396;10.064;2023-02-15T01:15:21;138.43;;;36.43;;
5393;SDS011;2720;52.396;10.064;2023-02-15T01:17:48;151.80;;;36.60;;
5393;SDS011;2720;52.396;10.064;2023-02-15T01:20:18;135.63;;;38.33;;
5393;SDS011;2720;52.396;10.064;2023-02-15T01:22:45;135.13;;;35.80;;
5393;SDS011;2720;52.396;10.064;2023-02-15T01:25:14;144.40;;;37.67;;
5393;SDS011;2720;52.396;10.064;2023-02-15T01:27:43;135.40;;;35.50;;
5393;SDS011;2720;52.396;10.064;2023-02-15T01:30:11;166.37;;;38.60;;
5393;SDS011;2720;52.396;10.064;2023-02-15T01:32:39;152.57;;;44.20;;
5393;SDS011;2720;52.396;10.064;2023-02-15T01:35:06;137.53;;;36.47;;
5393;SDS011;2720;52.396;10.064;2023-02-15T01:37:34;124.50;;;36.50;;
5393;SDS011;2720;52.396;10.064;2023-02-15T01:40:02;131.50;;;32.83;;
5393;SDS011;2720;52.396;10.064;2023-02-15T01:42:30;110.40;;;29.67;;
5393;SDS011;2720;52.396;10.064;2023-02-15T01:44:59;136.87;;;34.73;;
5393;SDS011;2720;52.396;10.064;2023-02-15T01:47:29;103.07;;;32.92;;
5393;SDS011;2720;52.396;10.064;2023-02-15T01:50:02;100.63;;;32.10;;
5393;SDS011;2720;52.396;10.064;2023-02-15T01:52:35;118.50;;;32.17;;
5393;SDS011;2720;52.396;10.064;2023-02-15T01:55:03;109.23;;;31.07;;
5393;SDS011;2720;52.396;10.064;2023-02-15T01:57:32;97.13;;;32.43;;
5393;SDS011;2720;52.396;10.064;2023-02-15T02:00:01;112.88;;;32.53;;
5393;SDS011;2720;52.396;10.064;2023-02-15T02:02:30;101.53;;;31.38;;
5393;SDS011;2720;52.396;10.064;2023-02-15T02:04:58;97.43;;;29.73;;
5393;SDS011;2720;52.396;10.064;2023-02-15T02:07:29;86.20;;;29.87;;
5393;SDS011;2720;52.396;10.064;2023-02-15T02:09:59;111.57;;;29.97;;
5393;SDS011;2720;52.396;10.064;2023-02-15T02:12:26;98.00;;;28.13;;
5393;SDS011;2720;52.396;10.064;2023-02-15T02:14:54;100.87;;;29.50;;
5393;SDS011;2720;52.396;10.064;2023-02-15T02:17:25;92.10;;;27.50;;
5393;SDS011;2720;52.396;10.064;2023-02-15T02:28:57;91.93;;;26.88;;
5393;SDS011;2720;52.396;10.064;2023-02-15T02:31:54;72.75;;;25.35;;
5393;SDS011;2720;52.396;10.064;2023-02-15T02:34:45;80.50;;;27.92;;
5393;SDS011;2720;52.396;10.064;2023-02-15T02:37:19;97.00;;;27.63;;
5393;SDS011;2720;52.396;10.064;2023-02-15T02:39:53;94.50;;;28.37;;
5393;SDS011;2720;52.396;10.064;2023-02-15T02:42:25;90.83;;;28.07;;
5393;SDS011;2720;52.396;10.064;2023-02-15T02:44:57;95.30;;;30.27;;
5393;SDS011;2720;52.396;10.064;2023-02-15T02:47:29;103.78;;;29.77;;
5393;SDS011;2720;52.396;10.064;2023-02-15T02:50:02;95.40;;;31.27;;
5393;SDS011;2720;52.396;10.064;2023-02-15T02:52:34;98.37;;;29.00;;
5393;SDS011;2720;52.396;10.064;2023-02-15T02:55:05;87.57;;;28.15;;
5393;SDS011;2720;52.396;10.064;2023-02-15T02:57:34;90.50;;;29.83;;
5393;SDS011;2720;52.396;10.064;2023-02-15T03:00:06;84.80;;;26.97;;
5393;SDS011;2720;52.396;10.064;2023-02-15T03:02:36;83.13;;;25.83;;
5393;SDS011;2720;52.396;10.064;2023-02-15T03:05:11;82.30;;;26.63;;
5393;SDS011;2720;52.396;10.064;2023-02-15T03:07:41;94.38;;;28.58;;
5393;SDS011;2720;52.396;10.064;2023-02-15T03:10:12;84.63;;;28.10;;
5393;SDS011;2720;52.396;10.064;2023-02-15T03:12:39;81.63;;;26.65;;
5393;SDS011;2720;52.396;10.064;2023-02-15T03:15:08;73.15;;;25.25;;
5393;SDS011;2720;52.396;10.064;2023-02-15T03:17:40;77.43;;;24.08;;
5393;SDS011;2720;52.396;10.064;2023-02-15T03:20:13;74.25;;;24.38;;
5393;SDS011;2720;52.396;10.064;2023-02-15T03:22:43;78.38;;;24.42;;
5393;SDS011;2720;52.396;10.064;2023-02-15T03:25:15;85.95;;;26.90;;
5393;SDS011;2720;52.396;10.064;2023-02-15T03:27:46;84.10;;;24.40;;
5393;SDS011;2720;52.396;10.064;2023-02-15T03:30:16;70.43;;;26.33;;
5393;SDS011;2720;52.396;10.064;2023-02-15T03:32:48;71.88;;;24.55;;
5393;SDS011;2720;52.396;10.064;2023-02-15T03:35:18;73.38;;;24.80;;
5393;SDS011;2720;52.396;10.064;2023-02-15T03:37:48;78.60;;;25.75;;
5393;SDS011;2720;52.396;10.064;2023-02-15T03:40:21;69.55;;;25.95;;
5393;SDS011;2720;52.396;10.064;2023-02-15T03:43:10;83.95;;;24.25;;
5393;SDS011;2720;52.396;10.064;2023-02-15T03:45:42;67.07;;;24.45;;
5393;SDS011;2720;52.396;10.064;2023-02-15T03:48:20;76.05;;;22.60;;
5393;SDS011;2720;52.396;10.064;2023-02-15T03:50:52;56.72;;;21.92;;
5393;SDS011;2720;52.396;10.064;2023-02-15T03:53:39;70.70;;;25.20;;
5393;SDS011;2720;52.396;10.064;2023-02-15T03:56:07;83.28;;;26.55;;
5393;SDS011;2720;52.396;10.064;2023-02-15T03:58:34;82.75;;;33.17;;
5393;SDS011;2720;52.396;10.064;2023-02-15T04:01:19;74.28;;;30.48;;
5393;SDS011;2720;52.396;10.064;2023-02-15T04:04:23;77.88;;;24.30;;
5393;SDS011;2720;52.396;10.064;2023-02-15T04:06:55;65.20;;;23.30;;
5393;SDS011;2720;52.396;10.064;2023-02-15T04:09:22;73.20;;;23.42;;
5393;SDS011;2720;52.396;10.064;2023-02-15T04:12:07;67.20;;;24.23;;
5393;SDS011;2720;52.396;10.064;2023-02-15T04:14:34;57.47;;;22.58;;
5393;SDS011;2720;52.396;10.064;2023-02-15T04:17:18;65.28;;;22.48;;
5393;SDS011;2720;52.396;10.064;2023-02-15T04:19:45;58.30;;;21.73;;
5393;SDS011;2720;52.396;10.064;2023-02-15T04:22:31;62.15;;;22.52;;
5393;SDS011;2720;52.396;10.064;2023-02-15T04:25:16;70.63;;;21.60;;
5393;SDS011;2720;52.396;10.064;2023-02-15T04:27:43;57.42;;;22.55;;
5393;SDS011;2720;52.396;10.064;2023-02-15T04:30:13;55.60;;;20.77;;
5393;SDS011;2720;52.396;10.064;2023-02-15T04:32:41;56.60;;;20.80;;
5393;SDS011;2720;52.396;10.064;2023-02-15T04:35:08;63.40;;;20.20;;
5393;SDS011;2720;52.396;10.064;2023-02-15T04:37:37;59.25;;;20.02;;
5393;SDS011;2720;52.396;10.064;2023-02-15T04:40:06;57.20;;;19.92;;
5393;SDS011;2720;52.396;10.064;2023-02-15T04:42:34;64.80;;;21.58;;
5393;SDS011;2720;52.396;10.064;2023-02-15T04:45:01;75.57;;;20.95;;
5393;SDS011;2720;52.396;10.064;2023-02-15T04:47:29;59.33;;;20.38;;
5393;SDS011;2720;52.396;10.064;2023-02-15T04:49:56;52.45;;;22.02;;
5393;SDS011;2720;52.396;10.064;2023-02-15T04:52:23;57.53;;;20.10;;
5393;SDS011;2720;52.396;10.064;2023-02-15T04:54:51;59.78;;;23.05;;
5393;SDS011;2720;52.396;10.064;2023-02-15T04:57:18;65.82;;;23.67;;
5393;SDS011;2720;52.396;10.064;2023-02-15T04:59:45;57.67;;;20.63;;
5393;SDS011;2720;52.396;10.064;2023-02-15T05:02:12;55.53;;;20.45;;
5393;SDS011;2720;52.396;10.064;2023-02-15T05:04:39;46.60;;;20.05;;
5393;SDS011;2720;52.396;10.064;2023-02-15T05:07:06;52.13;;;20.48;;
5393;SDS011;2720;52.396;10.064;2023-02-15T05:09:33;53.53;;;21.80;;
5393;SDS011;2720;52.396;10.064;2023-02-15T05:12:02;60.85;;;21.10;;
5393;SDS011;2720;52.396;10.064;2023-02-15T05:14:32;48.75;;;21.00;;
5393;SDS011;2720;52.396;10.064;2023-02-15T05:16:59;50.47;;;19.88;;
5393;SDS011;2720;52.396;10.064;2023-02-15T05:19:26;56.88;;;21.20;;
5393;SDS011;2720;52.396;10.064;2023-02-15T05:21:53;50.70;;;20.15;;
5393;SDS011;2720;52.396;10.064;2023-02-15T05:24:21;47.50;;;19.35;;
5393;SDS011;2720;52.396;10.064;2023-02-15T05:27:07;49.42;;;19.48;;
5393;SDS011;2720;52.396;10.064;2023-02-15T05:29:53;42.28;;;18.05;;
5393;SDS011;2720;52.396;10.064;2023-02-15T05:32:20;38.13;;;15.95;;
5393;SDS011;2720;52.396;10.064;2023-02-15T05:34:47;53.38;;;18.98;;
5393;SDS011;2720;52.396;10.064;2023-02-15T05:37:14;47.85;;;18.33;;
5393;SDS011;2720;52.396;10.064;2023-02-15T05:39:41;50.67;;;21.60;;
5393;SDS011;2720;52.396;10.064;2023-02-15T05:42:10;56.10;;;21.58;;
5393;SDS011;2720;52.396;10.064;2023-02-15T05:44:37;56.20;;;21.40;;
5393;SDS011;2720;52.396;10.064;2023-02-15T05:47:04;50.65;;;21.77;;
5393;SDS011;2720;52.396;10.064;2023-02-15T05:49:32;36.25;;;18.85;;
5393;SDS011;2720;52.396;10.064;2023-02-15T05:51:59;62.42;;;21.67;;
5393;SDS011;2720;52.396;10.064;2023-02-15T05:54:26;55.50;;;22.77;;
5393;SDS011;2720;52.396;10.064;2023-02-15T05:56:54;55.55;;;23.75;;
5393;SDS011;2720;52.396;10.064;2023-02-15T05:59:22;49.72;;;20.90;;
5393;SDS011;2720;52.396;10.064;2023-02-15T06:01:49;50.75;;;22.35;;
5393;SDS011;2720;52.396;10.064;2023-02-15T06:04:16;45.50;;;20.17;;
5393;SDS011;2720;52.396;10.064;2023-02-15T06:06:43;46.45;;;19.85;;
5393;SDS011;2720;52.396;10.064;2023-02-15T06:09:10;44.92;;;21.02;;
5393;SDS011;2720;52.396;10.064;2023-02-15T06:11:38;51.58;;;22.15;;
5393;SDS011;2720;52.396;10.064;2023-02-15T06:14:05;49.67;;;18.85;;
5393;SDS011;2720;52.396;10.064;2023-02-15T06:16:33;50.85;;;21.67;;
5393;SDS011;2720;52.396;10.064;2023-02-15T06:19:00;49.08;;;23.08;;
5393;SDS011;2720;52.396;10.064;2023-02-15T06:21:27;48.17;;;19.85;;
5393;SDS011;2720;52.396;10.064;2023-02-15T06:23:54;41.20;;;17.25;;
5393;SDS011;2720;52.396;10.064;2023-02-15T06:26:21;42.40;;;18.52;;
5393;SDS011;2720;52.396;10.064;2023-02-15T06:28:48;43.88;;;17.00;;
5393;SDS011;2720;52.396;10.064;2023-02-15T06:31:15;39.65;;;16.52;;
5393;SDS011;2720;52.396;10.064;2023-02-15T06:33:44;44.20;;;18.65;;
5393;SDS011;2720;52.396;10.064;2023-02-15T06:36:11;47.35;;;19.38;;
5393;SDS011;2720;52.396;10.064;2023-02-15T06:38:38;39.80;;;17.40;;
5393;SDS011;2720;52.396;10.064;2023-02-15T06:41:05;39.85;;;17.52;;
5393;SDS011;2720;52.396;10.064;2023-02-15T06:43:32;34.78;;;16.70;;
5393;SDS011;2720;52.396;10.064;2023-02-15T06:46:00;45.65;;;17.25;;
5393;SDS011;2720;52.396;10.064;2023-02-15T06:48:27;33.10;;;14.80;;
5393;SDS011;2720;52.396;10.064;2023-02-15T06:50:55;39.42;;;16.70;;
5393;SDS011;2720;52.396;10.064;2023-02-15T06:53:22;45.67;;;17.95;;
5393;SDS011;2720;52.396;10.064;2023-02-15T06:55:49;42.67;;;17.20;;
5393;SDS011;2720;52.396;10.064;2023-02-15T06:58:16;40.83;;;16.95;;
5393;SDS011;2720;52.396;10.064;2023-02-15T07:00:43;46.83;;;17.60;;
5393;SDS011;2720;52.396;10.064;2023-02-15T07:03:12;44.10;;;16.35;;
5393;SDS011;2720;52.396;10.064;2023-02-15T07:05:40;37.05;;;16.15;;
5393;SDS011;2720;52.396;10.064;2023-02-15T07:08:10;42.15;;;17.58;;
5393;SDS011;2720;52.396;10.064;2023-02-15T07:10:37;46.38;;;17.55;;
5393;SDS011;2720;52.396;10.064;2023-02-15T07:13:04;32.85;;;16.85;;
5393;SDS011;2720;52.396;10.064;2023-02-15T07:15:29;42.47;;;16.20;;
5393;SDS011;2720;52.396;10.064;2023-02-15T07:17:57;38.88;;;18.50;;
5393;SDS011;2720;52.396;10.064;2023-02-15T07:20:24;43.17;;;19.33;;
5393;SDS011;2720;52.396;10.064;2023-02-15T07:22:51;42.05;;;18.88;;
5393;SDS011;2720;52.396;10.064;2023-02-15T07:25:20;45.63;;;19.15;;
5393;SDS011;2720;52.396;10.064;2023-02-15T07:27:47;41.70;;;18.13;;
5393;SDS011;2720;52.396;10.064;2023-02-15T07:30:15;44.00;;;19.50;;
5393;SDS011;2720;52.396;10.064;2023-02-15T07:32:43;48.53;;;19.60;;
5393;SDS011;2720;52.396;10.064;2023-02-15T07:35:27;45.88;;;19.58;;
5393;SDS011;2720;52.396;10.064;2023-02-15T07:37:54;51.53;;;20.88;;
5393;SDS011;2720;52.396;10.064;2023-02-15T07:40:23;45.22;;;20.55;;
5393;SDS011;2720;52.396;10.064;2023-02-15T07:42:50;55.27;;;22.13;;
5393;SDS011;2720;52.396;10.064;2023-02-15T07:45:19;47.40;;;19.90;;
5393;SDS011;2720;52.396;10.064;2023-02-15T07:47:47;75.70;;;30.97;;
5393;SDS011;2720;52.396;10.064;2023-02-15T07:50:14;68.83;;;24.77;;
5393;SDS011;2720;52.396;10.064;2023-02-15T07:52:41;46.25;;;21.85;;
5393;SDS011;2720;52.396;10.064;2023-02-15T07:55:08;43.00;;;19.53;;
5393;SDS011;2720;52.396;10.064;2023-02-15T07:57:42;47.60;;;19.50;;
5393;SDS011;2720;52.396;10.064;2023-02-15T08:00:10;54.17;;;21.40;;
5393;SDS011;2720;52.396;10.064;2023-02-15T08:02:38;45.73;;;19.97;;
5393;SDS011;2720;52.396;10.064;2023-02-15T08:05:06;54.93;;;20.10;;
5393;SDS011;2720;52.396;10.064;2023-02-15T08:07:33;52.30;;;21.80;;
5393;SDS011;2720;52.396;10.064;2023-02-15T08:10:00;47.60;;;21.30;;
5393;SDS011;2720;52.396;10.064;2023-02-15T08:12:27;52.70;;;21.50;;
5393;SDS011;2720;52.396;10.064;2023-02-15T08:14:56;53.13;;;21.60;;
5393;SDS011;2720;52.396;10.064;2023-02-15T08:17:23;42.33;;;18.93;;
5393;SDS011;2720;52.396;10.064;2023-02-15T08:19:50;46.07;;;21.70;;
5393;SDS011;2720;52.396;10.064;2023-02-15T08:22:17;39.93;;;18.50;;
5393;SDS011;2720;52.396;10.064;2023-02-15T08:24:44;54.77;;;22.07;;
5393;SDS011;2720;52.396;10.064;2023-02-15T08:27:12;47.83;;;19.90;;
5393;SDS011;2720;52.396;10.064;2023-02-15T08:29:39;50.50;;;20.57;;
5393;SDS011;2720;52.396;10.064;2023-02-15T08:32:09;49.60;;;21.40;;
5393;SDS011;2720;52.396;10.064;2023-02-15T08:34:39;55.73;;;19.27;;
5393;SDS011;2720;52.396;10.064;2023-02-15T08:37:07;50.63;;;18.70;;
5393;SDS011;2720;52.396;10.064;2023-02-15T08:39:35;49.30;;;18.90;;
5393;SDS011;2720;52.396;10.064;2023-02-15T08:42:02;50.00;;;20.87;;
5393;SDS011;2720;52.396;10.064;2023-02-15T08:44:31;49.30;;;21.20;;
5393;SDS011;2720;52.396;10.064;2023-02-15T08:46:58;55.13;;;20.00;;
5393;SDS011;2720;52.396;10.064;2023-02-15T08:49:29;60.90;;;21.43;;
5393;SDS011;2720;52.396;10.064;2023-02-15T08:51:57;56.00;;;22.60;;
5393;SDS011;2720;52.396;10.064;2023-02-15T08:54:24;61.63;;;23.30;;
5393;SDS011;2720;52.396;10.064;2023-02-15T08:56:51;60.70;;;22.50;;
5393;SDS011;2720;52.396;10.064;2023-02-15T08:59:19;54.13;;;22.17;;
5393;SDS011;2720;52.396;10.064;2023-02-15T09:01:47;54.73;;;23.50;;
5393;SDS011;2720;52.396;10.064;2023-02-15T09:04:16;56.27;;;22.60;;
5393;SDS011;2720;52.396;10.064;2023-02-15T09:06:45;55.83;;;22.00;;
5393;SDS011;2720;52.396;10.064;2023-02-15T09:09:13;53.93;;;23.00;;
5393;SDS011;2720;52.396;10.064;2023-02-15T09:11:41;73.27;;;24.00;;
5393;SDS011;2720;52.396;10.064;2023-02-15T09:14:11;60.17;;;23.40;;
5393;SDS011;2720;52.396;10.064;2023-02-15T09:16:39;71.47;;;24.57;;
5393;SDS011;2720;52.396;10.064;2023-02-15T09:19:09;55.07;;;22.37;;
5393;SDS011;2720;52.396;10.064;2023-02-15T09:21:37;63.93;;;23.30;;
5393;SDS011;2720;52.396;10.064;2023-02-15T09:24:06;57.63;;;22.00;;
5393;SDS011;2720;52.396;10.064;2023-02-15T09:26:35;61.33;;;24.67;;
5393;SDS011;2720;52.396;10.064;2023-02-15T09:29:04;62.10;;;23.33;;
5393;SDS011;2720;52.396;10.064;2023-02-15T09:31:32;61.50;;;21.67;;
5393;SDS011;2720;52.396;10.064;2023-02-15T09:34:00;54.33;;;21.20;;
5393;SDS011;2720;52.396;10.064;2023-02-15T09:36:28;62.37;;;22.77;;
5393;SDS011;2720;52.396;10.064;2023-02-15T09:38:58;63.37;;;22.70;;
5393;SDS011;2720;52.396;10.064;2023-02-15T09:44:17;57.73;;;21.63;;
5393;SDS011;2720;52.396;10.064;2023-02-15T09:46:54;57.97;;;21.10;;
5393;SDS011;2720;52.396;10.064;2023-02-15T09:49:30;47.67;;;20.60;;
5393;SDS011;2720;52.396;10.064;2023-02-15T09:52:05;57.03;;;22.13;;
5393;SDS011;2720;52.396;10.064;2023-02-15T09:54:51;56.63;;;21.00;;
5393;SDS011;2720;52.396;10.064;2023-02-15T09:57:31;57.07;;;22.47;;
5393;SDS011;2720;52.396;10.064;2023-02-15T10:00:06;51.37;;;20.80;;
5393;SDS011;2720;52.396;10.064;2023-02-15T10:02:49;57.27;;;23.07;;
5393;SDS011;2720;52.396;10.064;2023-02-15T10:05:30;55.50;;;23.83;;
5393;SDS011;2720;52.396;10.064;2023-02-15T10:08:28;58.83;;;22.43;;
5393;SDS011;2720;52.396;10.064;2023-02-15T10:11:08;60.40;;;24.47;;
5393;SDS011;2720;52.396;10.064;2023-02-15T10:14:08;62.67;;;23.87;;
5393;SDS011;2720;52.396;10.064;2023-02-15T10:16:48;79.77;;;23.80;;
5393;SDS011;2720;52.396;10.064;2023-02-15T10:19:23;57.50;;;23.23;;
5393;SDS011;2720;52.396;10.064;2023-02-15T10:22:00;50.33;;;21.87;;
5393;SDS011;2720;52.396;10.064;2023-02-15T10:24:39;59.37;;;22.97;;
5393;SDS011;2720;52.396;10.064;2023-02-15T10:27:20;49.13;;;20.67;;
5393;SDS011;2720;52.396;10.064;2023-02-15T10:29:50;49.80;;;21.60;;
5393;SDS011;2720;52.396;10.064;2023-02-15T10:32:27;49.60;;;21.90;;
5393;SDS011;2720;52.396;10.064;2023-02-15T10:34:58;44.40;;;19.40;;
5393;SDS011;2720;52.396;10.064;2023-02-15T10:40:17;47.70;;;19.23;;
5393;SDS011;2720;52.396;10.064;2023-02-15T10:42:56;41.23;;;19.60;;
5393;SDS011;2720;52.396;10.064;2023-02-15T10:45:35;35.47;;;17.37;;
5393;SDS011;2720;52.396;10.064;2023-02-15T10:48:15;32.60;;;16.67;;
5393;SDS011;2720;52.396;10.064;2023-02-15T10:50:52;31.60;;;14.57;;
5393;SDS011;2720;52.396;10.064;2023-02-15T10:53:26;21.83;;;13.17;;
5393;SDS011;2720;52.396;10.064;2023-02-15T10:56:06;24.73;;;13.10;;
5393;SDS011;2720;52.396;10.064;2023-02-15T10:58:44;17.83;;;11.50;;
5393;SDS011;2720;52.396;10.064;2023-02-15T11:01:21;15.97;;;10.37;;
5393;SDS011;2720;52.396;10.064;2023-02-15T11:04:02;18.33;;;10.70;;
5393;SDS011;2720;52.396;10.064;2023-02-15T11:06:42;19.97;;;10.60;;
5393;SDS011;2720;52.396;10.064;2023-02-15T11:09:16;14.73;;;8.70;;
5393;SDS011;2720;52.396;10.064;2023-02-15T11:11:47;14.03;;;8.70;;
5393;SDS011;2720;52.396;10.064;2023-02-15T11:14:17;13.17;;;7.80;;
5393;SDS011;2720;52.396;10.064;2023-02-15T11:16:50;18.60;;;9.80;;
5393;SDS011;2720;52.396;10.064;2023-02-15T11:19:22;18.50;;;9.57;;
5393;SDS011;2720;52.396;10.064;2023-02-15T11:21:53;10.23;;;6.90;;
5393;SDS011;2720;52.396;10.064;2023-02-15T11:24:25;12.17;;;7.03;;
5393;SDS011;2720;52.396;10.064;2023-02-15T11:26:56;10.90;;;7.30;;
5393;SDS011;2720;52.396;10.064;2023-02-15T11:29:29;15.90;;;8.10;;
5393;SDS011;2720;52.396;10.064;2023-02-15T11:32:01;12.47;;;7.27;;
5393;SDS011;2720;52.396;10.064;2023-02-15T11:34:40;12.83;;;7.37;;
5393;SDS011;2720;52.396;10.064;2023-02-15T11:37:16;13.77;;;7.93;;
5393;SDS011;2720;52.396;10.064;2023-02-15T11:39:45;11.63;;;7.10;;
5393;SDS011;2720;52.396;10.064;2023-02-15T11:42:17;12.43;;;7.43;;
5393;SDS011;2720;52.396;10.064;2023-02-15T11:44:50;11.90;;;7.43;;
5393;SDS011;2720;52.396;10.064;2023-02-15T11:47:25;9.87;;;6.93;;
5393;SDS011;2720;52.396;10.064;2023-02-15T11:49:54;9.87;;;6.77;;
5393;SDS011;2720;52.396;10.064;2023-02-15T11:52:21;9.00;;;6.57;;
5393;SDS011;2720;52.396;10.064;2023-02-15T11:54:49;11.53;;;7.60;;
5393;SDS011;2720;52.396;10.064;2023-02-15T11:57:17;11.17;;;7.50;;
5393;SDS011;2720;52.396;10.064;2023-02-15T11:59:49;13.03;;;7.90;;
5393;SDS011;2720;52.396;10.064;2023-02-15T12:02:20;12.00;;;7.50;;
5393;SDS011;2720;52.396;10.064;2023-02-15T12:04:54;11.17;;;7.13;;
5393;SDS011;2720;52.396;10.064;2023-02-15T12:07:25;18.20;;;8.00;;
5393;SDS011;2720;52.396;10.064;2023-02-15T12:09:56;15.37;;;8.40;;
5393;SDS011;2720;52.396;10.064;2023-02-15T12:12:32;9.03;;;6.53;;
5393;SDS011;2720;52.396;10.064;2023-02-15T12:15:01;10.17;;;6.43;;
5393;SDS011;2720;52.396;10.064;2023-02-15T12:17:31;12.67;;;8.40;;
5393;SDS011;2720;52.396;10.064;2023-02-15T12:20:02;15.50;;;7.80;;
5393;SDS011;2720;52.396;10.064;2023-02-15T12:22:33;11.97;;;7.50;;
5393;SDS011;2720;52.396;10.064;2023-02-15T12:25:04;11.13;;;7.23;;
5393;SDS011;2720;52.396;10.064;2023-02-15T12:27:46;13.27;;;8.20;;
5393;SDS011;2720;52.396;10.064;2023-02-15T12:30:16;14.57;;;7.40;;
5393;SDS011;2720;52.396;10.064;2023-02-15T12:32:47;12.60;;;8.07;;
5393;SDS011;2720;52.396;10.064;2023-02-15T12:35:21;11.50;;;7.80;;
5393;SDS011;2720;52.396;10.064;2023-02-15T12:37:54;11.77;;;6.93;;
5393;SDS011;2720;52.396;10.064;2023-02-15T12:40:23;19.50;;;9.70;;
5393;SDS011;2720;52.396;10.064;2023-02-15T12:42:54;16.37;;;7.73;;
5393;SDS011;2720;52.396;10.064;2023-02-15T12:45:25;12.20;;;7.33;;
5393;SDS011;2720;52.396;10.064;2023-02-15T12:50:51;13.57;;;7.87;;
5393;SDS011;2720;52.396;10.064;2023-02-15T12:53:34;15.03;;;8.10;;
5393;SDS011;2720;52.396;10.064;2023-02-15T12:56:03;13.90;;;8.57;;
5393;SDS011;2720;52.396;10.064;2023-02-15T12:58:32;14.63;;;8.07;;
5393;SDS011;2720;52.396;10.064;2023-02-15T13:01:04;15.93;;;8.97;;
5393;SDS011;2720;52.396;10.064;2023-02-15T13:03:37;13.87;;;8.70;;
5393;SDS011;2720;52.396;10.064;2023-02-15T13:06:18;13.50;;;8.60;;
5393;SDS011;2720;52.396;10.064;2023-02-15T13:08:47;18.83;;;7.57;;
5393;SDS011;2720;52.396;10.064;2023-02-15T13:11:19;14.07;;;8.13;;
5393;SDS011;2720;52.396;10.064;2023-02-15T13:13:50;14.70;;;8.33;;
5393;SDS011;2720;52.396;10.064;2023-02-15T13:16:20;13.20;;;8.60;;
5393;SDS011;2720;52.396;10.064;2023-02-15T13:18:57;14.00;;;8.30;;
5393;SDS011;2720;52.396;10.064;2023-02-15T13:21:31;16.30;;;9.43;;
5393;SDS011;2720;52.396;10.064;2023-02-15T13:24:04;16.50;;;8.57;;
5393;SDS011;2720;52.396;10.064;2023-02-15T13:26:34;14.00;;;8.70;;
5393;SDS011;2720;52.396;10.064;2023-02-15T13:29:04;14.73;;;8.43;;
5393;SDS011;2720;52.396;10.064;2023-02-15T13:31:34;15.40;;;8.70;;
5393;SDS011;2720;52.396;10.064;2023-02-15T13:34:03;13.60;;;8.47;;
5393;SDS011;2720;52.396;10.064;2023-02-15T13:36:39;14.37;;;8.80;;
5393;SDS011;2720;52.396;10.064;2023-02-15T13:39:18;16.07;;;8.20;;
5393;SDS011;2720;52.396;10.064;2023-02-15T13:41:52;12.90;;;8.70;;
5393;SDS011;2720;52.396;10.064;2023-02-15T13:47:25;15.50;;;9.80;;
5393;SDS011;2720;52.396;10.064;2023-02-15T13:50:03;13.90;;;8.90;;
5393;SDS011;2720;52.396;10.064;2023-02-15T13:52:46;16.40;;;9.93;;
5393;SDS011;2720;52.396;10.064;2023-02-15T13:55:35;14.87;;;9.63;;
5393;SDS011;2720;52.396;10.064;2023-02-15T14:01:14;22.03;;;10.93;;
5393;SDS011;2720;52.396;10.064;2023-02-15T14:07:09;17.53;;;9.40;;
5393;SDS011;2720;52.396;10.064;2023-02-15T14:09:59;15.43;;;9.27;;
5393;SDS011;2720;52.396;10.064;2023-02-15T14:12:42;15.87;;;9.70;;
5393;SDS011;2720;52.396;10.064;2023-02-15T14:15:23;15.20;;;9.40;;
5393;SDS011;2720;52.396;10.064;2023-02-15T14:18:12;21.07;;;10.17;;
5393;SDS011;2720;52.396;10.064;2023-02-15T14:20:51;22.40;;;11.60;;
5393;SDS011;2720;52.396;10.064;2023-02-15T14:23:31;17.43;;;10.33;;
5393;SDS011;2720;52.396;10.064;2023-02-15T14:26:09;22.43;;;11.10;;
5393;SDS011;2720;52.396;10.064;2023-02-15T14:28:42;15.47;;;9.57;;
5393;SDS011;2720;52.396;10.064;2023-02-15T14:31:16;14.33;;;9.10;;
5393;SDS011;2720;52.396;10.064;2023-02-15T14:33:50;16.10;;;9.17;;
5393;SDS011;2720;52.396;10.064;2023-02-15T14:36:20;19.10;;;10.30;;
5393;SDS011;2720;52.396;10.064;2023-02-15T14:38:59;16.47;;;10.03;;
5393;SDS011;2720;52.396;10.064;2023-02-15T14:41:59;11.73;;;8.20;;
5393;SDS011;2720;52.396;10.064;2023-02-15T14:44:33;16.57;;;10.20;;
5393;SDS011;2720;52.396;10.064;2023-02-15T14:47:04;13.83;;;8.80;;
5393;SDS011;2720;52.396;10.064;2023-02-15T14:49:37;20.23;;;10.27;;
5393;SDS011;2720;52.396;10.064;2023-02-15T14:52:05;20.93;;;9.23;;
5393;SDS011;2720;52.396;10.064;2023-02-15T14:57:25;18.40;;;9.00;;
5393;SDS011;2720;52.396;10.064;2023-02-15T14:59:56;16.33;;;9.00;;
5393;SDS011;2720;52.396;10.064;2023-02-15T15:02:25;15.10;;;8.17;;
5393;SDS011;2720;52.396;10.064;2023-02-15T15:04:59;16.20;;;8.70;;
5393;SDS011;2720;52.396;10.064;2023-02-15T15:07:36;16.87;;;9.87;;
5393;SDS011;2720;52.396;10.064;2023-02-15T15:16:27;18.07;;;9.07;;
5393;SDS011;2720;52.396;10.064;2023-02-15T15:22:23;16.63;;;8.03;;
5393;SDS011;2720;52.396;10.064;2023-02-15T15:24:52;15.57;;;8.33;;
5393;SDS011;2720;52.396;10.064;2023-02-15T15:33:34;16.47;;;9.10;;
5393;SDS011;2720;52.396;10.064;2023-02-15T15:43:03;15.33;;;9.07;;
5393;SDS011;2720;52.396;10.064;2023-02-15T15:46:10;18.83;;;10.10;;
5393;SDS011;2720;52.396;10.064;2023-02-15T15:48:51;14.77;;;9.47;;
5393;SDS011;2720;52.396;10.064;2023-02-15T15:51:20;22.83;;;9.37;;
5393;SDS011;2720;52.396;10.064;2023-02-15T15:53:50;20.00;;;11.10;;